Washburn, North Dakota
Current Conditions -  °F | °C
As of 6:55 PM on Wednesday 22 Oct 2014 (Local Time) from KHZE Reporting Station
Overcast Overcast  
Wind Chill: 59°   Ceiling: 7000
Heat Index: 59°   Visibility: 10mi
Dew Point: 37°   Wind: 7mph
Humidity: 45%   Direction: 290°WNW
Pressure: 29.86"   Gusts: NA
Location:  47.29°N, 101.03°W
Report Text: KHZE 222355Z AUTO 29006KT 10SM OVC070 15/03 A2986 RMK AO2
Loading
Personal Weather Stations






























Interactive Weather Map New forecast layout! Learn more

10-Day Weather Forecast

Advertisements
Track Severe Weather on mobile